createdAt,value
2022-09-25T00:00:21.182Z,33.85
2022-09-25T00:02:55.411Z,33.50
2022-09-25T00:05:27.920Z,34.35
2022-09-25T00:08:00.644Z,34.15
2022-09-25T00:10:36.002Z,33.88
2022-09-25T00:13:06.104Z,33.88
2022-09-25T00:15:36.208Z,33.08
2022-09-25T00:18:06.849Z,32.22
2022-09-25T00:20:34.362Z,32.58
2022-09-25T00:23:12.326Z,33.05
2022-09-25T00:25:43.196Z,32.78
2022-09-25T00:28:18.120Z,32.35
2022-09-25T00:30:48.449Z,31.58
2022-09-25T00:33:18.617Z,34.78
2022-09-25T00:35:48.655Z,33.88
2022-09-25T00:38:21.320Z,33.10
2022-09-25T00:40:51.494Z,33.63
2022-09-25T00:43:44.600Z,33.63
2022-09-25T00:46:21.374Z,31.65
2022-09-25T00:49:03.724Z,32.95
2022-09-25T00:51:42.527Z,34.15
2022-09-25T00:54:22.559Z,32.25
2022-09-25T00:57:03.147Z,34.88
2022-09-25T00:59:43.960Z,32.42
2022-09-25T01:02:26.281Z,31.80
2022-09-25T01:05:00.513Z,33.80
2022-09-25T01:07:30.995Z,31.83
2022-09-25T01:10:04.809Z,34.35
2022-09-25T01:12:43.388Z,33.72
2022-09-25T01:15:16.199Z,31.70
2022-09-25T01:18:03.003Z,34.05
2022-09-25T01:21:03.453Z,33.53
2022-09-25T01:24:19.028Z,32.45
2022-09-25T01:27:47.097Z,33.30
2022-09-25T01:30:27.660Z,33.13
2022-09-25T01:33:06.799Z,32.88
2022-09-25T01:35:44.810Z,32.58
2022-09-25T01:38:29.839Z,34.58
2022-09-25T01:41:11.212Z,34.97
2022-09-25T01:43:47.744Z,34.10
2022-09-25T01:46:25.222Z,35.13
2022-09-25T01:49:02.757Z,37.05
2022-09-25T01:51:41.544Z,34.92
2022-09-25T01:54:17.488Z,38.03
2022-09-25T01:56:57.201Z,38.75
2022-09-25T01:59:36.506Z,38.88
2022-09-25T02:02:19.275Z,37.88
2022-09-25T02:04:57.837Z,37.65
2022-09-25T02:07:48.354Z,38.50
2022-09-25T02:10:26.623Z,39.08
2022-09-25T02:13:05.081Z,38.33
2022-09-25T02:15:42.234Z,38.10
2022-09-25T02:18:34.072Z,37.35
2022-09-25T02:21:17.330Z,37.13
2022-09-25T02:23:56.488Z,35.80
2022-09-25T02:26:31.695Z,33.92
2022-09-25T02:29:02.969Z,34.30
2022-09-25T02:31:40.506Z,34.35
2022-09-25T02:34:15.505Z,33.88
2022-09-25T02:36:46.527Z,33.88
2022-09-25T02:39:21.751Z,34.38
2022-09-25T02:42:16.962Z,34.50
2022-09-25T02:45:05.683Z,34.67
2022-09-25T02:47:45.304Z,33.92
2022-09-25T02:50:26.793Z,32.63
2022-09-25T02:53:11.998Z,33.58
2022-09-25T02:55:49.219Z,32.35
2022-09-25T02:58:27.093Z,32.53
2022-09-25T03:01:00.496Z,31.45
2022-09-25T03:03:36.545Z,30.33
2022-09-25T03:06:14.579Z,30.55
2022-09-25T03:08:54.304Z,29.65
2022-09-25T03:11:31.324Z,31.40
2022-09-25T03:14:03.961Z,30.17
2022-09-25T03:16:43.716Z,31.27
2022-09-25T03:19:19.827Z,29.23
2022-09-25T03:21:55.632Z,31.00
2022-09-25T03:24:26.106Z,30.67
2022-09-25T03:26:59.303Z,29.85
2022-09-25T03:29:31.186Z,29.65
2022-09-25T03:32:04.845Z,28.08
2022-09-25T03:34:35.023Z,26.38
2022-09-25T03:37:07.687Z,26.65
2022-09-25T03:39:50.000Z,25.15
2022-09-25T03:42:23.994Z,24.20
2022-09-25T03:44:54.094Z,23.83
2022-09-25T03:47:24.141Z,24.33
2022-09-25T03:49:54.211Z,23.30
2022-09-25T03:52:29.244Z,23.30
2022-09-25T03:55:02.385Z,21.25
2022-09-25T03:57:39.878Z,21.58
2022-09-25T04:00:11.250Z,21.38
2022-09-25T04:02:41.423Z,20.67
2022-09-25T04:05:14.590Z,19.30
2022-09-25T04:07:48.402Z,19.80
2022-09-25T04:10:18.674Z,20.15
2022-09-25T04:12:54.462Z,17.58
2022-09-25T04:15:28.307Z,17.15
2022-09-25T04:18:01.172Z,17.10
2022-09-25T04:20:35.770Z,15.32
2022-09-25T04:23:08.460Z,14.98
2022-09-25T04:25:38.587Z,15.77
2022-09-25T04:28:11.344Z,15.05
2022-09-25T04:30:41.480Z,13.52
2022-09-25T04:33:25.426Z,13.60
2022-09-25T04:35:56.466Z,13.02
2022-09-25T04:38:32.595Z,13.85
2022-09-25T04:41:03.663Z,12.80
2022-09-25T04:43:35.358Z,12.35
2022-09-25T04:46:07.094Z,12.88
2022-09-25T04:48:37.729Z,12.10
2022-09-25T04:51:10.686Z,11.20
2022-09-25T04:53:43.321Z,11.35
2022-09-25T04:56:16.256Z,10.18
2022-09-25T04:58:49.788Z,9.95
2022-09-25T05:01:22.536Z,8.73
2022-09-25T05:03:54.601Z,8.38
2022-09-25T05:06:27.047Z,7.90
2022-09-25T05:09:07.815Z,7.60
2022-09-25T05:11:40.169Z,6.90
2022-09-25T05:14:10.412Z,6.70
2022-09-25T05:16:40.577Z,6.30
2022-09-25T05:19:14.164Z,6.25
2022-09-25T05:21:51.180Z,6.13
2022-09-25T05:24:23.940Z,6.68
2022-09-25T05:26:54.045Z,6.43
2022-09-25T05:29:24.099Z,5.47
2022-09-25T05:31:54.302Z,6.18
2022-09-25T05:34:24.446Z,6.05
2022-09-25T05:36:57.807Z,5.28
2022-09-25T05:39:32.909Z,5.72
2022-09-25T05:42:03.469Z,5.40
2022-09-25T05:44:33.555Z,4.68
2022-09-25T05:47:04.218Z,5.05
2022-09-25T05:49:34.270Z,4.75
2022-09-25T05:52:05.173Z,4.97
2022-09-25T05:54:37.820Z,4.47
2022-09-25T05:57:07.916Z,4.85
2022-09-25T05:59:43.378Z,4.47
2022-09-25T06:02:14.953Z,4.22
2022-09-25T06:04:48.143Z,4.10
2022-09-25T06:07:18.186Z,4.47
2022-09-25T06:09:52.888Z,4.70
2022-09-25T06:12:23.889Z,4.18
2022-09-25T06:14:56.745Z,4.82
2022-09-25T06:17:29.901Z,4.63
2022-09-25T06:19:59.980Z,3.92
2022-09-25T06:22:33.108Z,4.72
2022-09-25T06:25:06.115Z,4.88
2022-09-25T06:27:45.435Z,4.70
2022-09-25T06:30:19.104Z,4.22
2022-09-25T06:32:51.900Z,4.40
2022-09-25T06:35:22.192Z,4.38
2022-09-25T06:37:52.264Z,4.68
2022-09-25T06:40:29.215Z,5.47
2022-09-25T06:43:00.615Z,3.83
2022-09-25T06:45:34.273Z,4.35
2022-09-25T06:48:06.224Z,4.05
2022-09-25T06:50:44.219Z,5.15
2022-09-25T06:53:20.528Z,3.92
2022-09-25T06:56:00.933Z,3.33
2022-09-25T06:58:40.424Z,3.50
2022-09-25T07:01:13.810Z,3.50
2022-09-25T07:03:45.162Z,3.65
2022-09-25T07:06:17.801Z,3.20
2022-09-25T07:08:52.675Z,3.53
2022-09-25T07:11:33.180Z,4.20
2022-09-25T07:14:03.521Z,3.42
2022-09-25T07:16:34.607Z,3.58
2022-09-25T07:19:04.802Z,3.20
2022-09-25T07:21:35.035Z,3.17
2022-09-25T07:24:07.946Z,3.70
2022-09-25T07:26:43.431Z,3.67
2022-09-25T07:29:13.688Z,3.15
2022-09-25T07:31:47.135Z,3.28
2022-09-25T07:34:17.274Z,3.38
2022-09-25T07:36:47.654Z,2.88
2022-09-25T07:39:18.846Z,3.05
2022-09-25T07:41:51.697Z,3.13
2022-09-25T07:44:28.934Z,3.65
2022-09-25T07:47:04.105Z,3.58
2022-09-25T07:49:37.751Z,3.78
2022-09-25T07:52:08.331Z,4.07
2022-09-25T07:54:40.635Z,3.63
2022-09-25T07:57:15.754Z,3.92
2022-09-25T07:59:48.924Z,3.90
2022-09-25T08:02:19.404Z,3.72
2022-09-25T08:04:53.604Z,3.97
2022-09-25T08:07:24.388Z,3.90
2022-09-25T08:09:54.673Z,3.80
2022-09-25T08:12:29.984Z,3.35
2022-09-25T08:15:00.145Z,3.35
2022-09-25T08:17:32.275Z,3.10
2022-09-25T08:20:02.810Z,3.35
2022-09-25T08:22:35.585Z,3.80
2022-09-25T08:25:05.719Z,3.38
2022-09-25T08:27:43.540Z,3.33
2022-09-25T08:30:17.999Z,2.85
2022-09-25T08:32:52.387Z,3.08
2022-09-25T08:35:26.379Z,3.17
2022-09-25T08:37:56.740Z,2.60
2022-09-25T08:40:32.142Z,3.22
2022-09-25T08:43:06.309Z,2.72
2022-09-25T08:45:55.055Z,3.08
2022-09-25T08:48:43.990Z,2.70
2022-09-25T08:51:20.784Z,2.40
2022-09-25T08:53:51.314Z,2.45
2022-09-25T08:56:21.841Z,2.58
2022-09-25T08:59:05.633Z,2.78
2022-09-25T09:01:47.465Z,2.28
2022-09-25T09:04:32.051Z,2.60
2022-09-25T09:07:29.705Z,2.30
2022-09-25T09:10:12.845Z,2.25
2022-09-25T09:12:53.691Z,2.33
2022-09-25T09:15:39.647Z,1.98
2022-09-25T09:18:25.978Z,2.15
2022-09-25T09:20:59.241Z,2.05
2022-09-25T09:23:43.580Z,2.20
2022-09-25T09:26:33.989Z,2.25
2022-09-25T09:29:47.147Z,2.50
2022-09-25T09:32:46.291Z,2.40
2022-09-25T09:35:34.191Z,2.05
2022-09-25T09:38:21.158Z,2.40
2022-09-25T09:41:21.931Z,2.38
2022-09-25T09:44:10.450Z,2.03
2022-09-25T09:46:56.516Z,3.05
2022-09-25T09:49:39.342Z,2.75
2022-09-25T09:52:19.828Z,2.50
2022-09-25T09:54:57.740Z,2.85
2022-09-25T09:57:31.237Z,2.55
2022-09-25T10:00:09.405Z,2.17
2022-09-25T10:02:46.300Z,2.13
2022-09-25T10:05:27.658Z,2.35
2022-09-25T10:07:58.354Z,2.13
2022-09-25T10:10:44.931Z,2.28
2022-09-25T10:13:25.341Z,2.38
2022-09-25T10:16:01.127Z,2.17
2022-09-25T10:18:46.626Z,2.55
2022-09-25T10:21:33.130Z,1.92
2022-09-25T10:24:03.974Z,4.03
2022-09-25T10:26:37.254Z,2.00
2022-09-25T10:29:29.590Z,1.98
2022-09-25T10:32:05.746Z,2.10
2022-09-25T10:34:36.795Z,4.45
2022-09-25T10:37:21.932Z,2.08
2022-09-25T10:40:06.950Z,2.15
2022-09-25T10:42:44.428Z,1.70
2022-09-25T10:45:34.859Z,5.10
2022-09-25T10:48:39.657Z,3.00
2022-09-25T10:51:16.782Z,1.80
2022-09-25T10:53:53.094Z,1.83
2022-09-25T10:56:29.037Z,2.05
2022-09-25T10:59:04.671Z,1.77
2022-09-25T11:01:41.050Z,1.92
2022-09-25T11:04:20.480Z,1.67
2022-09-25T11:06:54.903Z,1.45
2022-09-25T11:09:32.524Z,2.03
2022-09-25T11:12:15.901Z,1.95
2022-09-25T11:14:58.758Z,1.48
2022-09-25T11:17:42.131Z,1.50
2022-09-25T11:20:34.834Z,1.27
2022-09-25T11:23:36.259Z,1.40
2022-09-25T11:26:22.295Z,1.60
2022-09-25T11:29:06.131Z,1.40
2022-09-25T11:31:49.527Z,1.40
2022-09-25T11:34:39.347Z,1.40
2022-09-25T11:37:25.963Z,1.75
2022-09-25T11:40:28.295Z,1.23
2022-09-25T11:43:11.765Z,1.58
2022-09-25T11:45:51.631Z,1.45
2022-09-25T11:48:32.927Z,1.42
2022-09-25T11:51:16.678Z,2.08
2022-09-25T11:54:12.409Z,1.35
2022-09-25T11:57:09.900Z,1.85
2022-09-25T12:00:13.270Z,1.63
2022-09-25T12:03:14.121Z,1.35
2022-09-25T12:06:16.453Z,1.50
2022-09-25T12:09:10.314Z,1.90
2022-09-25T12:11:55.492Z,2.10
2022-09-25T12:14:37.948Z,1.80
2022-09-25T12:17:21.760Z,2.47
2022-09-25T12:20:07.768Z,2.75
2022-09-25T12:22:52.618Z,1.42
2022-09-25T12:25:55.513Z,1.77
2022-09-25T12:28:41.898Z,1.83
2022-09-25T12:31:31.490Z,1.30
2022-09-25T12:34:26.841Z,1.25
2022-09-25T12:37:08.272Z,1.50
2022-09-25T12:39:47.355Z,1.80
2022-09-25T12:42:26.373Z,2.03
2022-09-25T12:45:03.199Z,2.25
2022-09-25T12:47:41.427Z,2.00
2022-09-25T12:50:23.571Z,1.70
2022-09-25T12:53:00.007Z,2.55
2022-09-25T12:55:47.212Z,1.63
2022-09-25T12:58:29.946Z,2.00
2022-09-25T13:01:11.894Z,2.22
2022-09-25T13:03:56.336Z,1.80
2022-09-25T13:06:42.542Z,2.15
2022-09-25T13:09:29.814Z,1.90
2022-09-25T13:12:11.882Z,1.67
2022-09-25T13:14:49.210Z,2.00
2022-09-25T13:17:21.972Z,2.20
2022-09-25T13:20:00.574Z,2.40
2022-09-25T13:22:33.510Z,2.85
2022-09-25T13:25:16.289Z,2.38
2022-09-25T13:27:50.188Z,2.00
2022-09-25T13:30:29.641Z,2.38
2022-09-25T13:33:07.516Z,2.42
2022-09-25T13:35:37.788Z,2.17
2022-09-25T13:38:42.052Z,13.35
2022-09-25T13:41:11.309Z,2.53
2022-09-25T13:43:41.533Z,2.60
2022-09-25T13:46:28.327Z,2.30
2022-09-25T13:49:36.705Z,1.63
2022-09-25T13:52:29.263Z,1.70
2022-09-25T13:55:21.461Z,1.65
2022-09-25T13:58:07.082Z,1.83
2022-09-25T14:00:59.025Z,1.92
2022-09-25T14:03:44.098Z,1.90
2022-09-25T14:06:21.927Z,2.05
2022-09-25T14:08:55.279Z,2.00
2022-09-25T14:11:34.132Z,1.40
2022-09-25T14:14:19.680Z,1.77
2022-09-25T14:16:55.365Z,1.45
2022-09-25T14:19:32.017Z,1.20
2022-09-25T14:22:06.204Z,1.17
2022-09-25T14:24:45.825Z,1.30
2022-09-25T14:27:28.246Z,1.23
2022-09-25T14:30:10.085Z,1.02
2022-09-25T14:33:15.958Z,1.10
2022-09-25T14:35:58.455Z,1.00
2022-09-25T14:39:19.167Z,0.80
2022-09-25T14:42:26.440Z,1.10
2022-09-25T14:45:37.236Z,1.15
2022-09-25T14:48:14.456Z,1.02
2022-09-25T14:50:51.700Z,1.30
2022-09-25T14:53:31.041Z,1.10
2022-09-25T14:56:05.574Z,1.10
2022-09-25T14:58:40.289Z,1.20
2022-09-25T15:01:26.420Z,1.20
2022-09-25T15:04:03.900Z,1.00
2022-09-25T15:06:36.553Z,1.17
2022-09-25T15:09:32.142Z,1.23
2022-09-25T15:12:04.418Z,1.05
2022-09-25T15:14:40.060Z,1.00
2022-09-25T15:17:27.843Z,0.80
2022-09-25T15:20:02.657Z,1.20
2022-09-25T15:22:39.697Z,0.90
2022-09-25T15:25:20.733Z,1.10
2022-09-25T15:27:50.932Z,1.00
2022-09-25T15:30:39.887Z,1.27
2022-09-25T15:33:25.601Z,0.90
2022-09-25T15:36:03.518Z,0.82
2022-09-25T15:38:36.694Z,0.85
2022-09-25T15:41:15.179Z,1.20
2022-09-25T15:43:45.526Z,1.25
2022-09-25T15:46:40.411Z,1.42
2022-09-25T15:49:11.156Z,1.17
2022-09-25T15:52:01.089Z,1.17
2022-09-25T15:54:41.709Z,1.60
2022-09-25T15:57:16.680Z,2.13
2022-09-25T16:00:02.916Z,1.13
2022-09-25T16:02:55.791Z,1.42
2022-09-25T16:05:35.450Z,1.60
2022-09-25T16:08:32.101Z,1.23
2022-09-25T16:11:22.645Z,1.40
2022-09-25T16:13:55.385Z,1.20
2022-09-25T16:16:30.048Z,1.17
2022-09-25T16:19:30.171Z,1.40
2022-09-25T16:22:03.879Z,1.35
2022-09-25T16:24:54.018Z,1.17
2022-09-25T16:27:30.553Z,1.10
2022-09-25T16:30:04.962Z,1.10
2022-09-25T16:32:38.134Z,1.08
2022-09-25T16:35:27.162Z,1.13
2022-09-25T16:37:57.471Z,0.93
2022-09-25T16:40:34.190Z,0.80
2022-09-25T16:43:06.948Z,1.17
2022-09-25T16:46:00.508Z,1.02
2022-09-25T16:48:37.547Z,1.02
2022-09-25T16:51:21.458Z,0.90
2022-09-25T16:53:52.475Z,0.90
2022-09-25T16:56:31.106Z,1.17
2022-09-25T16:59:02.256Z,1.23
2022-09-25T17:01:32.470Z,0.85
2022-09-25T17:04:02.776Z,0.82
2022-09-25T17:06:40.848Z,1.00
2022-09-25T17:09:15.781Z,1.08
2022-09-25T17:11:50.139Z,1.20
2022-09-25T17:14:26.661Z,1.00
2022-09-25T17:16:59.116Z,1.20
2022-09-25T17:19:29.988Z,1.23
2022-09-25T17:22:05.285Z,1.17
2022-09-25T17:24:35.379Z,1.70
2022-09-25T17:27:08.113Z,1.65
2022-09-25T17:29:38.532Z,1.33
2022-09-25T17:32:08.859Z,1.50
2022-09-25T17:34:41.680Z,1.17
2022-09-25T17:37:16.715Z,1.20
2022-09-25T17:39:46.763Z,1.40
2022-09-25T17:42:19.954Z,1.40
2022-09-25T17:44:50.056Z,1.38
2022-09-25T17:47:29.396Z,1.25
2022-09-25T17:49:59.996Z,1.20
2022-09-25T17:52:35.654Z,1.20
2022-09-25T17:55:19.439Z,1.30
2022-09-25T17:57:52.654Z,1.85
2022-09-25T18:00:25.761Z,2.40
2022-09-25T18:02:55.921Z,3.20
2022-09-25T18:05:29.575Z,2.60
2022-09-25T18:08:02.367Z,2.20
2022-09-25T18:10:41.150Z,1.70
2022-09-25T18:13:20.644Z,1.88
2022-09-25T18:16:03.663Z,2.20
2022-09-25T18:18:46.017Z,2.08
2022-09-25T18:21:28.648Z,2.10
2022-09-25T18:24:01.305Z,4.13
2022-09-25T18:26:32.092Z,11.50
2022-09-25T18:29:02.161Z,6.10
2022-09-25T18:31:32.626Z,4.65
2022-09-25T18:34:03.334Z,5.15
2022-09-25T18:36:36.495Z,3.92
2022-09-25T18:39:17.411Z,2.95
2022-09-25T18:41:50.526Z,3.45
2022-09-25T18:44:23.464Z,3.90
2022-09-25T18:46:56.995Z,3.92
2022-09-25T18:49:28.506Z,4.05
2022-09-25T18:52:01.707Z,3.40
2022-09-25T18:54:34.523Z,3.55
2022-09-25T18:57:07.785Z,3.00
2022-09-25T18:59:43.272Z,3.65
2022-09-25T19:02:25.849Z,4.68
2022-09-25T19:04:58.252Z,4.22
2022-09-25T19:07:31.931Z,3.50
2022-09-25T19:10:09.506Z,3.92
2022-09-25T19:12:39.683Z,3.00
2022-09-25T19:15:11.445Z,3.70
2022-09-25T19:17:41.597Z,3.13
2022-09-25T19:20:14.426Z,3.53
2022-09-25T19:22:44.563Z,3.33
2022-09-25T19:25:22.484Z,3.63
2022-09-25T19:27:53.094Z,3.20
2022-09-25T19:30:26.221Z,3.45
2022-09-25T19:33:01.901Z,3.50
2022-09-25T19:35:32.164Z,2.55
2022-09-25T19:38:02.241Z,2.67
2022-09-25T19:40:41.255Z,2.65
2022-09-25T19:43:14.467Z,3.33
2022-09-25T19:45:53.636Z,3.10
2022-09-25T19:48:24.748Z,3.70
2022-09-25T19:50:54.911Z,3.75
2022-09-25T19:53:25.047Z,4.10
2022-09-25T19:56:04.877Z,3.15
2022-09-25T19:58:36.282Z,2.85
2022-09-25T20:01:11.473Z,3.15
2022-09-25T20:03:43.907Z,3.83
2022-09-25T20:06:15.738Z,3.00
2022-09-25T20:08:46.583Z,3.47
2022-09-25T20:11:24.153Z,3.20
2022-09-25T20:13:56.730Z,3.70
2022-09-25T20:16:30.956Z,3.42
2022-09-25T20:19:03.561Z,2.85
2022-09-25T20:21:37.183Z,3.30
2022-09-25T20:24:10.293Z,3.50
2022-09-25T20:26:45.756Z,3.72
2022-09-25T20:29:19.772Z,3.72
2022-09-25T20:31:50.240Z,3.80
2022-09-25T20:34:22.953Z,3.60
2022-09-25T20:36:56.152Z,3.63
2022-09-25T20:39:27.508Z,3.87
2022-09-25T20:42:00.246Z,3.40
2022-09-25T20:44:35.975Z,4.25
2022-09-25T20:47:06.047Z,3.80
2022-09-25T20:49:41.459Z,3.07
2022-09-25T20:52:12.487Z,3.23
2022-09-25T20:54:45.555Z,3.20
2022-09-25T20:57:18.225Z,3.20
2022-09-25T20:59:48.314Z,4.13
2022-09-25T21:02:18.403Z,3.83
2022-09-25T21:04:50.888Z,3.95
2022-09-25T21:07:25.417Z,3.05
2022-09-25T21:09:58.680Z,3.10
2022-09-25T21:12:34.398Z,2.70
2022-09-25T21:15:07.322Z,2.47
2022-09-25T21:17:37.593Z,3.03
2022-09-25T21:20:08.657Z,3.30
2022-09-25T21:22:41.292Z,3.50
2022-09-25T21:25:12.661Z,3.33
2022-09-25T21:27:45.333Z,2.65
2022-09-25T21:30:18.555Z,2.47
2022-09-25T21:32:51.780Z,3.30
2022-09-25T21:35:22.144Z,3.10
2022-09-25T21:37:54.554Z,2.70
2022-09-25T21:40:24.720Z,3.00
2022-09-25T21:42:58.038Z,2.72
2022-09-25T21:45:28.104Z,2.93
2022-09-25T21:48:09.989Z,3.00
2022-09-25T21:50:40.168Z,3.57
2022-09-25T21:53:10.213Z,3.00
2022-09-25T21:55:40.935Z,2.80
2022-09-25T21:58:17.507Z,2.83
2022-09-25T22:00:50.447Z,2.57
2022-09-25T22:03:20.598Z,2.30
2022-09-25T22:06:03.072Z,2.50
2022-09-25T22:08:39.275Z,2.63
2022-09-25T22:11:12.080Z,2.47
2022-09-25T22:13:48.026Z,2.90
2022-09-25T22:16:22.497Z,2.43
2022-09-25T22:18:56.073Z,2.30
2022-09-25T22:21:28.822Z,2.30
2022-09-25T22:23:59.512Z,2.50
2022-09-25T22:26:33.793Z,2.00
2022-09-25T22:29:10.442Z,2.47
2022-09-25T22:31:45.500Z,2.40
2022-09-25T22:34:22.233Z,2.27
2022-09-25T22:36:59.485Z,2.50
2022-09-25T22:39:31.933Z,2.53
2022-09-25T22:42:05.027Z,2.03
2022-09-25T22:44:37.801Z,2.13
2022-09-25T22:47:08.068Z,2.17
2022-09-25T22:49:38.165Z,2.13
2022-09-25T22:52:08.244Z,2.10
2022-09-25T22:54:38.311Z,2.43
2022-09-25T22:57:08.448Z,1.93
2022-09-25T22:59:43.798Z,1.93
2022-09-25T23:02:13.980Z,2.10
2022-09-25T23:04:44.925Z,2.57
2022-09-25T23:07:15.149Z,1.90
2022-09-25T23:09:52.300Z,2.00
2022-09-25T23:12:30.409Z,2.33
2022-09-25T23:15:03.432Z,3.10
2022-09-25T23:17:33.523Z,2.87
2022-09-25T23:20:04.292Z,2.30
2022-09-25T23:22:34.352Z,2.40
2022-09-25T23:25:04.414Z,2.10
2022-09-25T23:27:34.551Z,2.30
2022-09-25T23:30:08.209Z,2.20
2022-09-25T23:32:38.655Z,2.13
2022-09-25T23:35:10.472Z,2.37
2022-09-25T23:37:43.326Z,2.53
2022-09-25T23:40:15.823Z,2.30
2022-09-25T23:42:46.066Z,2.37
2022-09-25T23:45:21.565Z,2.03
2022-09-25T23:47:54.335Z,2.10
2022-09-25T23:50:24.535Z,2.40
2022-09-25T23:52:57.343Z,2.13
2022-09-25T23:55:27.455Z,2.50
2022-09-25T23:57:57.473Z,2.60
